Coastal 303 — WDE2540 — position and weather

sailwx.info

Track history (hours):
 
Tides and Currents Weather Stations Pressure Air Temp Water Temp Dewpoint Dewpoint Depression Visibility Wind Speed Wind Dir Waves Ship Positions

Coastal 303

Owner: U.S. United Ocean Services, LLC, Tampa, FL. More information available from US FCC via Universal Licensing System and Coast Guard Vessel Documentation Center.

Last reported at 2015-Apr-02 09:33 UTC. Time now 2015-Apr-02 09:46 UTC.
Position N 27°48' W 082°25'.

Length 180 m; draft 8.2 m.

Type: Towing. MMSI: 366751340.

Date/timePositionNaut miles runAvg speedWind from/ knotsBaromVisibWave heightAir tempDewpointWater temp
2015-Apr-02 09:33N 27°48' W 082°25'0 0.0
2015-Apr-02 08:33N 27°48' W 082°25'0 0.0
2015-Apr-02 07:33N 27°48' W 082°25'0 0.0
2015-Apr-02 06:33N 27°48' W 082°25'0 0.0
2015-Apr-02 05:33N 27°48' W 082°25'0 0.0
2015-Apr-02 04:33N 27°48' W 082°25'0 0.0
2015-Apr-02 03:33N 27°48' W 082°25'0 0.0
2015-Apr-02 02:33N 27°48' W 082°25'0 0.0
2015-Apr-02 01:33N 27°48' W 082°25'0 0.0
2015-Apr-02 00:33N 27°48' W 082°25'0 0.0
2015-Apr-01 23:33N 27°48' W 082°25'0 0.0
2015-Apr-01 22:33N 27°48' W 082°25'0 0.0
2015-Apr-01 21:30N 27°48' W 082°25'0 0.0
2015-Apr-01 20:33N 27°48' W 082°25'0 0.0
2015-Apr-01 19:33N 27°48' W 082°25'0 0.0
2015-Apr-01 18:33N 27°48' W 082°25'0 0.0
2015-Apr-01 17:33N 27°48' W 082°25'0 0.0
2015-Apr-01 16:33N 27°48' W 082°25'0 0.1
2015-Apr-01 15:30N 27°48' W 082°25'1 0.9
2015-Apr-01 14:33N 27°48' W 082°25'6 5.9
2015-Apr-01 13:33N 27°46' W 082°31'9 8.4
2015-Apr-01 12:30N 27°39' W 082°37'9 8.0
2015-Apr-01 11:21N 27°37' W 082°47'  
2015-Mar-28 15:07N 29°53' W 089°58'21 7.0
2015-Mar-28 12:05N 29°56' W 090°22'  
Track history (hours):
 
Tides and Currents Weather Stations Pressure Air Temp Water Temp Dewpoint Dewpoint Depression Visibility Wind Speed Wind Dir Waves Ship Positions

Coastal 303

Owner: U.S. United Ocean Services, LLC, Tampa, FL. More information available from US FCC via Universal Licensing System and Coast Guard Vessel Documentation Center.

Last reported at 2015-Apr-02 09:33 UTC. Time now 2015-Apr-02 09:46 UTC.
Position N 27°48' W 082°25'.

Length 180 m; draft 8.2 m.

Type: Towing. MMSI: 366751340.

Date/timePositionNaut miles runAvg speedWind from/ knotsBaromVisibWave heightAir tempDewpointWater temp
2015-Apr-02 09:33N 27°48' W 082°25'0 0.0
2015-Apr-02 08:33N 27°48' W 082°25'0 0.0
2015-Apr-02 07:33N 27°48' W 082°25'0 0.0
2015-Apr-02 06:33N 27°48' W 082°25'0 0.0
2015-Apr-02 05:33N 27°48' W 082°25'0 0.0
2015-Apr-02 04:33N 27°48' W 082°25'0 0.0
2015-Apr-02 03:33N 27°48' W 082°25'0 0.0
2015-Apr-02 02:33N 27°48' W 082°25'0 0.0
2015-Apr-02 01:33N 27°48' W 082°25'0 0.0
2015-Apr-02 00:33N 27°48' W 082°25'0 0.0
2015-Apr-01 23:33N 27°48' W 082°25'0 0.0
2015-Apr-01 22:33N 27°48' W 082°25'0 0.0
2015-Apr-01 21:30N 27°48' W 082°25'0 0.0
2015-Apr-01 20:33N 27°48' W 082°25'0 0.0
2015-Apr-01 19:33N 27°48' W 082°25'0 0.0
2015-Apr-01 18:33N 27°48' W 082°25'0 0.0
2015-Apr-01 17:33N 27°48' W 082°25'0 0.0
2015-Apr-01 16:33N 27°48' W 082°25'0 0.1
2015-Apr-01 15:30N 27°48' W 082°25'1 0.9
2015-Apr-01 14:33N 27°48' W 082°25'6 5.9
2015-Apr-01 13:33N 27°46' W 082°31'9 8.4
2015-Apr-01 12:30N 27°39' W 082°37'9 8.0
2015-Apr-01 11:21N 27°37' W 082°47'  
2015-Mar-28 15:07N 29°53' W 089°58'21 7.0
2015-Mar-28 12:05N 29°56' W 090°22'  

Dump ship's entire track history